Time;durP1;ratioP1;P1;durP2;ratioP2;P2;SDS_P1;SDS_P2;PMS_P1;PMS_P2;Temp;Humidity;BMP_temperature;BMP_pressure;BME280_temperature;BME280_humidity;BME280_pressure;Samples;Min_cycle;Max_cycle;Signal;HPM_P1;HPM_P2
2023/03/21 00:01:45;;;;;;;;;;;11.10;99.90;;;;;;4996840;28;19921;-87
2023/03/21 00:04:11;;;;;;;;;;;11.10;99.90;;;;;;4980612;28;19914;-87
2023/03/21 00:06:37;;;;;;;;;;;11.00;99.90;;;;;;4980484;28;19941;-87
2023/03/21 00:09:03;;;;;;;;;;;11.00;99.90;;;;;;4996654;28;19946;-87
2023/03/21 00:11:28;;;;;;;;;;;11.00;99.90;;;;;;4980600;28;20319;-87
2023/03/21 00:13:57;;;;;;;;;;;11.00;99.90;;;;;;5001740;28;19917;-90
2023/03/21 00:16:22;;;;;;;;;;;11.00;99.90;;;;;;4988277;28;20393;-90
2023/03/21 00:18:51;;;;;;;;;;;11.00;99.90;;;;;;4994183;28;19917;-89
2023/03/21 00:21:17;;;;;;;;;;;11.00;99.90;;;;;;4993682;28;19914;-91
2023/03/21 00:23:45;;;;;;;;;;;11.00;99.90;;;;;;4998173;28;20355;-90
2023/03/21 00:26:10;;;;;;;;;;;11.00;99.90;;;;;;4997968;28;19925;-91
2023/03/21 00:28:36;;;;;;;;;;;11.00;99.90;;;;;;4999863;28;19914;-93
2023/03/21 00:31:02;;;;;;;;;;;11.00;99.90;;;;;;4981172;28;20374;-93
2023/03/21 00:33:28;;;;;;;;;;;11.00;99.90;;;;;;4982099;28;20009;-93
2023/03/21 00:35:54;;;;;;;;;;;11.00;99.90;;;;;;4981203;28;19936;-94
2023/03/21 00:38:20;;;;;;;;;;;11.00;99.90;;;;;;5013635;28;20367;-86
2023/03/21 00:40:46;;;;;;;;;;;11.00;99.90;;;;;;4995851;28;19910;-85
2023/03/21 00:43:13;;;;;;;;;;;11.00;99.90;;;;;;4996921;28;19909;-87
2023/03/21 00:45:39;;;;;;;;;;;11.00;99.90;;;;;;4982778;28;19918;-93
2023/03/21 00:48:05;;;;;;;;;;;11.00;99.90;;;;;;4997177;28;20387;-93
2023/03/21 00:50:31;;;;;;;;;;;11.00;99.90;;;;;;4996874;28;19913;-93
2023/03/21 00:52:57;;;;;;;;;;;10.90;99.90;;;;;;4997241;28;20402;-92
2023/03/21 00:55:22;;;;;;;;;;;11.00;99.90;;;;;;4997362;28;19914;-93
2023/03/21 00:57:48;;;;;;;;;;;11.00;99.90;;;;;;4979394;28;19946;-85
2023/03/21 01:00:14;;;;;;;;;;;11.00;99.90;;;;;;4979791;28;19914;-93
2023/03/21 01:02:55;;;;;;;;;;;10.90;99.90;;;;;;4986423;28;19918;-85
2023/03/21 01:08:19;;;;;;;;;;;10.90;99.90;;;;;;4980445;28;20393;-87
2023/03/21 01:10:45;;;;;;;;;;;10.90;99.90;;;;;;4980682;28;19914;-90
2023/03/21 01:13:12;;;;;;;;;;;10.90;99.90;;;;;;4980337;28;20256;-93
2023/03/21 01:15:51;;;;;;;;;;;10.90;99.90;;;;;;4998159;28;19998;-91
2023/03/21 01:18:18;;;;;;;;;;;10.90;99.90;;;;;;4995750;28;20008;-94
2023/03/21 01:20:44;;;;;;;;;;;10.90;99.90;;;;;;4996178;28;19964;-91
2023/03/21 01:23:11;;;;;;;;;;;10.90;99.90;;;;;;4997002;28;19913;-91
2023/03/21 01:25:36;;;;;;;;;;;10.90;99.90;;;;;;4999084;28;20018;-94
2023/03/21 01:28:02;;;;;;;;;;;10.90;99.90;;;;;;4996468;28;19963;-88
2023/03/21 01:30:28;;;;;;;;;;;10.80;99.90;;;;;;4978705;28;19960;-89
2023/03/21 01:32:53;;;;;;;;;;;10.80;99.90;;;;;;4999342;28;19910;-90
2023/03/21 01:35:19;;;;;;;;;;;10.80;99.90;;;;;;5003844;28;19921;-93
2023/03/21 01:37:44;;;;;;;;;;;10.80;99.90;;;;;;4999540;28;20283;-94
2023/03/21 01:40:15;;;;;;;;;;;10.80;99.90;;;;;;4999182;28;19913;-93
2023/03/21 01:42:41;;;;;;;;;;;10.80;99.90;;;;;;5015608;28;19910;-94
2023/03/21 01:45:26;;;;;;;;;;;10.80;99.90;;;;;;4999113;28;19920;-94
2023/03/21 01:47:52;;;;;;;;;;;10.80;99.90;;;;;;5015138;28;19909;-93
2023/03/21 01:53:23;;;;;;;;;;;10.80;99.90;;;;;;5015764;28;19916;-85
2023/03/21 01:55:48;;;;;;;;;;;10.80;99.90;;;;;;5014339;28;19972;-90
2023/03/21 01:58:17;;;;;;;;;;;10.80;99.90;;;;;;4998115;28;20290;-91
2023/03/21 02:00:43;;;;;;;;;;;10.80;99.90;;;;;;5019639;28;19940;-91
2023/03/21 02:03:10;;;;;;;;;;;10.70;99.90;;;;;;5014751;28;19920;-91
2023/03/21 02:05:35;;;;;;;;;;;10.70;99.90;;;;;;4998686;28;19964;-91
2023/03/21 02:08:01;;;;;;;;;;;10.70;99.90;;;;;;5014525;28;19913;-91
2023/03/21 02:10:27;;;;;;;;;;;10.70;99.90;;;;;;4998928;28;19924;-86
2023/03/21 02:12:57;;;;;;;;;;;10.70;99.90;;;;;;5016112;28;19956;-86
2023/03/21 02:15:25;;;;;;;;;;;10.70;99.90;;;;;;5015618;28;19917;-86
2023/03/21 02:18:00;;;;;;;;;;;10.70;99.90;;;;;;5049459;28;19917;-85
2023/03/21 02:20:44;;;;;;;;;;;10.70;99.90;;;;;;5036593;28;19908;-86
2023/03/21 02:23:16;;;;;;;;;;;10.80;99.90;;;;;;5037095;28;19912;-86
2023/03/21 02:25:57;;;;;;;;;;;10.70;99.90;;;;;;5039756;28;19916;-93
2023/03/21 02:28:28;;;;;;;;;;;10.70;99.90;;;;;;5043990;28;20003;-93
2023/03/21 02:31:03;;;;;;;;;;;10.70;99.90;;;;;;5043425;28;19916;-93
2023/03/21 02:33:35;;;;;;;;;;;10.70;99.90;;;;;;5046470;28;19913;-92
2023/03/21 02:42:13;;;;;;;;;;;10.70;99.90;;;;;;5057094;28;19916;-90
2023/03/21 02:44:45;;;;;;;;;;;10.80;99.90;;;;;;5037777;28;19923;-90
2023/03/21 02:47:12;;;;;;;;;;;10.70;99.90;;;;;;5039635;28;19958;-90
2023/03/21 02:49:41;;;;;;;;;;;10.70;99.90;;;;;;5038731;28;19940;-90
2023/03/21 02:52:10;;;;;;;;;;;10.70;99.90;;;;;;5041034;28;19998;-88
2023/03/21 02:54:36;;;;;;;;;;;10.70;99.90;;;;;;5041836;28;19909;-88
2023/03/21 02:57:03;;;;;;;;;;;10.70;99.90;;;;;;5024673;28;19912;-88
2023/03/21 02:59:29;;;;;;;;;;;10.70;99.90;;;;;;5038070;28;20059;-90
2023/03/21 03:01:55;;;;;;;;;;;10.70;99.90;;;;;;5036860;28;19909;-92
2023/03/21 03:04:21;;;;;;;;;;;10.70;99.90;;;;;;5024018;28;19913;-93
2023/03/21 03:06:56;;;;;;;;;;;10.70;99.90;;;;;;5046716;28;19915;-92
2023/03/21 03:09:22;;;;;;;;;;;10.70;99.90;;;;;;5042758;28;19909;-88
2023/03/21 03:11:51;;;;;;;;;;;10.70;99.90;;;;;;5036611;28;19913;-88
2023/03/21 03:14:39;;;;;;;;;;;10.80;99.90;;;;;;5036641;28;19932;-88
2023/03/21 03:17:16;;;;;;;;;;;10.70;99.90;;;;;;5036109;28;20003;-88
2023/03/21 03:19:58;;;;;;;;;;;10.70;99.90;;;;;;5036382;28;19916;-88
2023/03/21 03:22:27;;;;;;;;;;;10.80;99.90;;;;;;5036395;28;19909;-88
2023/03/21 03:24:53;;;;;;;;;;;10.70;99.90;;;;;;5037016;28;19909;-88
2023/03/21 03:27:22;;;;;;;;;;;10.70;99.90;;;;;;5040225;28;20013;-88
2023/03/21 03:29:49;;;;;;;;;;;10.70;99.90;;;;;;5040523;28;20033;-88
2023/03/21 03:32:17;;;;;;;;;;;10.70;99.90;;;;;;5039935;28;19909;-88
2023/03/21 03:34:48;;;;;;;;;;;10.80;99.90;;;;;;5058073;28;19909;-88
2023/03/21 03:37:16;;;;;;;;;;;10.70;99.90;;;;;;5040428;28;19916;-93
2023/03/21 03:39:46;;;;;;;;;;;10.70;99.90;;;;;;5041193;28;19967;-93
2023/03/21 03:42:15;;;;;;;;;;;10.70;99.90;;;;;;5041883;28;19945;-88
2023/03/21 03:44:40;;;;;;;;;;;10.80;99.90;;;;;;5039815;28;20258;-88
2023/03/21 03:47:06;;;;;;;;;;;10.80;99.90;;;;;;5040004;28;19915;-88
2023/03/21 03:49:34;;;;;;;;;;;10.80;99.90;;;;;;5058024;28;20003;-86
2023/03/21 03:52:07;;;;;;;;;;;10.80;99.90;;;;;;5039136;28;19967;-86
2023/03/21 03:54:36;;;;;;;;;;;10.70;99.90;;;;;;5039736;28;19909;-86
2023/03/21 03:57:03;;;;;;;;;;;10.70;99.90;;;;;;5057078;28;19909;-87
2023/03/21 03:59:29;;;;;;;;;;;10.70;99.90;;;;;;5022920;28;20360;-92
2023/03/21 04:01:54;;;;;;;;;;;10.70;99.90;;;;;;5024471;28;20380;-91
2023/03/21 04:04:21;;;;;;;;;;;10.60;99.90;;;;;;5023985;28;20425;-91
2023/03/21 04:06:50;;;;;;;;;;;10.60;99.90;;;;;;5034312;28;19913;-92
2023/03/21 04:09:16;;;;;;;;;;;10.70;99.90;;;;;;5065655;28;19909;-91
2023/03/21 04:11:42;;;;;;;;;;;10.60;99.90;;;;;;5041084;28;20307;-88
2023/03/21 04:14:07;;;;;;;;;;;10.60;99.90;;;;;;5040407;28;20430;-94
2023/03/21 04:16:33;;;;;;;;;;;10.60;99.90;;;;;;5026297;28;19927;-92
2023/03/21 04:18:58;;;;;;;;;;;10.60;99.90;;;;;;5042895;28;19913;-91
2023/03/21 04:21:24;;;;;;;;;;;10.60;99.90;;;;;;5023429;28;19920;-94
2023/03/21 04:23:50;;;;;;;;;;;10.50;99.90;;;;;;5023263;28;19915;-91
2023/03/21 04:26:16;;;;;;;;;;;10.50;99.90;;;;;;5023734;28;20426;-92
2023/03/21 04:28:41;;;;;;;;;;;10.50;99.90;;;;;;5040110;28;19948;-91
2023/03/21 04:31:08;;;;;;;;;;;10.50;99.90;;;;;;5023739;28;20023;-91
2023/03/21 04:33:37;;;;;;;;;;;10.50;99.90;;;;;;5028877;28;19913;-90
2023/03/21 04:36:05;;;;;;;;;;;10.50;99.90;;;;;;5040220;28;20011;-91
2023/03/21 04:38:31;;;;;;;;;;;10.50;99.90;;;;;;5024177;28;19927;-91
2023/03/21 04:40:56;;;;;;;;;;;10.40;99.90;;;;;;5034277;28;19944;-91
2023/03/21 04:43:22;;;;;;;;;;;10.50;99.90;;;;;;5050678;28;19965;-91
2023/03/21 04:45:48;;;;;;;;;;;10.40;99.90;;;;;;5028081;28;20365;-91
2023/03/21 04:48:16;;;;;;;;;;;10.40;99.90;;;;;;5040953;28;19909;-91
2023/03/21 04:50:43;;;;;;;;;;;10.40;99.90;;;;;;5040485;28;19920;-91
2023/03/21 04:53:08;;;;;;;;;;;10.50;99.90;;;;;;5058232;28;20273;-91
2023/03/21 04:55:35;;;;;;;;;;;10.40;99.90;;;;;;5023900;28;19913;-90
2023/03/21 04:58:01;;;;;;;;;;;10.40;99.90;;;;;;5023635;28;19947;-90
2023/03/21 05:00:27;;;;;;;;;;;10.40;99.90;;;;;;5023068;28;19917;-90
2023/03/21 05:02:53;;;;;;;;;;;10.40;99.90;;;;;;5039583;28;19943;-89
2023/03/21 05:05:18;;;;;;;;;;;10.40;99.90;;;;;;5038988;28;19912;-90
2023/03/21 05:07:44;;;;;;;;;;;10.40;99.90;;;;;;5022710;28;19967;-90
2023/03/21 05:10:10;;;;;;;;;;;10.40;99.90;;;;;;5039087;28;20015;-90
2023/03/21 05:12:36;;;;;;;;;;;10.30;99.90;;;;;;5041861;28;19909;-93
2023/03/21 05:15:02;;;;;;;;;;;10.40;99.90;;;;;;5039539;28;19908;-91
2023/03/21 05:17:28;;;;;;;;;;;10.40;99.90;;;;;;5042501;28;19931;-91
2023/03/21 05:19:55;;;;;;;;;;;10.30;99.90;;;;;;5024800;28;19913;-91
2023/03/21 05:22:23;;;;;;;;;;;10.30;99.90;;;;;;5043942;28;19988;-90
2023/03/21 05:24:49;;;;;;;;;;;10.30;99.90;;;;;;5042060;28;19919;-91
2023/03/21 05:27:36;;;;;;;;;;;10.30;99.90;;;;;;5038977;28;19913;-91
2023/03/21 05:30:05;;;;;;;;;;;10.30;99.90;;;;;;5038787;28;19924;-91
2023/03/21 05:32:31;;;;;;;;;;;10.30;99.90;;;;;;5038670;28;19909;-91
2023/03/21 05:34:57;;;;;;;;;;;10.40;99.90;;;;;;5023051;28;20007;-95
2023/03/21 05:37:22;;;;;;;;;;;10.30;99.90;;;;;;5056724;28;19985;-95
2023/03/21 05:39:48;;;;;;;;;;;10.30;99.90;;;;;;5021805;28;20007;-92
2023/03/21 05:42:14;;;;;;;;;;;10.40;99.90;;;;;;5021391;28;19920;-95
2023/03/21 05:44:40;;;;;;;;;;;10.30;99.90;;;;;;5025715;28;20417;-94
2023/03/21 05:47:07;;;;;;;;;;;10.30;99.90;;;;;;5026603;28;19970;-95
2023/03/21 05:49:33;;;;;;;;;;;10.30;99.90;;;;;;5039445;28;20002;-96
2023/03/21 05:51:58;;;;;;;;;;;10.30;99.90;;;;;;5040395;28;19917;-94
2023/03/21 05:54:26;;;;;;;;;;;10.30;99.90;;;;;;5038359;28;21539;-85
2023/03/21 05:56:51;;;;;;;;;;;10.30;99.90;;;;;;5038816;28;19912;-95
2023/03/21 05:59:17;;;;;;;;;;;10.30;99.90;;;;;;5025176;28;19913;-93
2023/03/21 06:01:42;;;;;;;;;;;10.20;99.90;;;;;;5025001;28;19912;-93
2023/03/21 06:04:08;;;;;;;;;;;10.30;99.90;;;;;;5022322;28;19936;-95
2023/03/21 06:06:33;;;;;;;;;;;10.30;99.90;;;;;;5038712;28;19916;-86
2023/03/21 06:08:59;;;;;;;;;;;10.30;99.90;;;;;;5017378;28;19916;-85
2023/03/21 06:11:27;;;;;;;;;;;10.30;99.90;;;;;;4997085;28;20390;-85
2023/03/21 06:13:53;;;;;;;;;;;10.30;99.90;;;;;;5015043;28;20293;-89
2023/03/21 06:16:18;;;;;;;;;;;10.40;99.90;;;;;;4981399;28;19928;-87
2023/03/21 06:18:44;;;;;;;;;;;10.30;99.90;;;;;;4998029;28;19918;-87
2023/03/21 06:21:09;;;;;;;;;;;10.30;99.90;;;;;;5014218;28;20357;-87
2023/03/21 06:23:36;;;;;;;;;;;10.30;99.90;;;;;;4998225;28;19920;-87
2023/03/21 06:26:02;;;;;;;;;;;10.20;99.90;;;;;;5014858;28;20490;-89
2023/03/21 06:28:28;;;;;;;;;;;10.30;99.90;;;;;;5007830;28;19910;-87
2023/03/21 06:30:53;;;;;;;;;;;10.20;99.90;;;;;;5003966;28;19921;-87
2023/03/21 06:33:19;;;;;;;;;;;10.20;99.90;;;;;;5003459;28;19921;-87
2023/03/21 06:35:49;;;;;;;;;;;10.20;99.90;;;;;;5021516;28;19917;-90
2023/03/21 06:38:15;;;;;;;;;;;10.20;99.90;;;;;;5018555;28;19909;-90
2023/03/21 06:40:40;;;;;;;;;;;10.20;99.90;;;;;;5018398;28;20400;-85
2023/03/21 06:43:06;;;;;;;;;;;10.20;99.90;;;;;;4999952;28;20492;-85
2023/03/21 06:45:31;;;;;;;;;;;10.20;99.90;;;;;;5000236;28;19921;-85
2023/03/21 06:47:57;;;;;;;;;;;10.30;99.90;;;;;;5000338;28;20298;-85
2023/03/21 06:50:22;;;;;;;;;;;10.20;99.90;;;;;;5016526;28;19913;-85
2023/03/21 06:52:48;;;;;;;;;;;10.20;99.90;;;;;;5018079;28;19917;-93
2023/03/21 06:55:13;;;;;;;;;;;10.30;99.90;;;;;;5022998;28;19977;-94
2023/03/21 06:57:39;;;;;;;;;;;10.30;99.90;;;;;;5038807;28;19921;-93
2023/03/21 07:00:07;;;;;;;;;;;10.30;99.90;;;;;;5020396;28;19948;-94
2023/03/21 07:02:32;;;;;;;;;;;10.30;99.90;;;;;;5036342;28;19984;-94
2023/03/21 07:04:58;;;;;;;;;;;10.30;99.90;;;;;;5027336;28;20026;-93
2023/03/21 07:07:25;;;;;;;;;;;10.30;99.90;;;;;;5034543;28;20397;-93
2023/03/21 07:09:50;;;;;;;;;;;10.40;99.90;;;;;;5017788;28;19916;-94
2023/03/21 07:12:16;;;;;;;;;;;10.40;99.90;;;;;;5002170;28;19913;-93
2023/03/21 07:14:41;;;;;;;;;;;10.40;99.90;;;;;;5001587;28;20074;-93
2023/03/21 07:17:07;;;;;;;;;;;10.40;99.90;;;;;;5013694;28;19925;-94
2023/03/21 07:19:32;;;;;;;;;;;10.50;99.90;;;;;;4998144;28;19917;-94
2023/03/21 07:22:00;;;;;;;;;;;10.50;99.90;;;;;;4998015;28;19920;-94
2023/03/21 07:24:26;;;;;;;;;;;10.40;99.90;;;;;;4998546;28;20411;-94
2023/03/21 07:26:52;;;;;;;;;;;10.50;99.90;;;;;;5014223;28;20294;-91
2023/03/21 07:29:20;;;;;;;;;;;10.50;99.90;;;;;;5013999;28;19914;-90
2023/03/21 07:31:45;;;;;;;;;;;10.60;99.90;;;;;;4998012;28;19918;-91
2023/03/21 07:34:11;;;;;;;;;;;10.60;99.90;;;;;;4997790;28;19964;-91
2023/03/21 07:36:37;;;;;;;;;;;10.60;99.90;;;;;;4997739;28;19921;-91
2023/03/21 07:39:03;;;;;;;;;;;10.60;99.90;;;;;;5014147;28;20485;-91
2023/03/21 07:41:28;;;;;;;;;;;10.60;99.90;;;;;;4997752;28;19914;-91
2023/03/21 07:43:54;;;;;;;;;;;10.70;99.90;;;;;;5009237;28;19914;-86
2023/03/21 07:46:20;;;;;;;;;;;10.70;99.90;;;;;;4974734;28;19918;-86
2023/03/21 07:48:45;;;;;;;;;;;10.70;99.90;;;;;;4976638;28;20019;-86
2023/03/21 07:51:11;;;;;;;;;;;10.70;99.90;;;;;;4992618;28;20318;-86
2023/03/21 07:53:36;;;;;;;;;;;10.80;99.90;;;;;;4977033;28;19937;-86
2023/03/21 07:56:02;;;;;;;;;;;10.70;99.90;;;;;;4976599;28;19953;-86
2023/03/21 07:58:28;;;;;;;;;;;10.70;99.90;;;;;;4976818;28;20043;-90
2023/03/21 08:00:56;;;;;;;;;;;10.80;99.90;;;;;;4995501;28;19914;-91
2023/03/21 08:03:22;;;;;;;;;;;10.70;99.90;;;;;;4995168;28;19914;-94
2023/03/21 08:05:48;;;;;;;;;;;10.80;99.90;;;;;;4978942;28;20332;-94
2023/03/21 08:08:14;;;;;;;;;;;10.70;99.90;;;;;;4994968;28;19957;-95
2023/03/21 08:10:41;;;;;;;;;;;10.70;99.90;;;;;;4979603;28;20012;-95
2023/03/21 08:13:06;;;;;;;;;;;10.70;99.90;;;;;;4999563;28;19910;-94
2023/03/21 08:15:32;;;;;;;;;;;10.80;99.90;;;;;;4982793;28;19914;-95
2023/03/21 08:17:58;;;;;;;;;;;10.80;99.90;;;;;;4984757;28;20016;-95
2023/03/21 08:20:24;;;;;;;;;;;10.70;99.90;;;;;;4984779;28;19918;-94
2023/03/21 08:22:50;;;;;;;;;;;10.80;99.90;;;;;;4982842;28;19933;-94
2023/03/21 08:25:16;;;;;;;;;;;10.80;99.90;;;;;;4999149;28;20391;-95
2023/03/21 08:27:43;;;;;;;;;;;10.80;99.90;;;;;;5000626;28;19910;-94
2023/03/21 08:30:11;;;;;;;;;;;10.80;99.90;;;;;;4999132;28;19910;-94
2023/03/21 08:32:37;;;;;;;;;;;10.80;99.90;;;;;;4999995;28;19916;-90
2023/03/21 08:35:04;;;;;;;;;;;10.80;99.90;;;;;;4976603;28;20005;-90
2023/03/21 08:37:30;;;;;;;;;;;10.80;99.90;;;;;;4996247;28;19961;-90
2023/03/21 08:39:55;;;;;;;;;;;10.80;99.90;;;;;;4980726;28;19914;-91
2023/03/21 08:42:21;;;;;;;;;;;10.80;99.90;;;;;;4980370;28;19975;-91
2023/03/21 08:44:47;;;;;;;;;;;10.80;99.90;;;;;;4995605;28;20256;-88
2023/03/21 08:47:13;;;;;;;;;;;10.80;99.90;;;;;;4995906;28;19917;-88
2023/03/21 08:49:39;;;;;;;;;;;10.80;99.90;;;;;;4980735;28;19925;-88
2023/03/21 08:52:05;;;;;;;;;;;10.80;99.90;;;;;;4983592;28;20445;-87
2023/03/21 08:54:31;;;;;;;;;;;10.80;99.90;;;;;;4981537;28;19918;-90
2023/03/21 08:56:56;;;;;;;;;;;10.90;99.90;;;;;;4998516;28;20004;-91
2023/03/21 08:59:22;;;;;;;;;;;10.90;99.90;;;;;;4999122;28;19913;-90
2023/03/21 09:01:47;;;;;;;;;;;10.90;99.90;;;;;;4979770;28;19975;-89
2023/03/21 09:04:13;;;;;;;;;;;10.90;99.90;;;;;;4996634;28;19976;-89
2023/03/21 09:06:48;;;;;;;;;;;10.90;99.90;;;;;;4983464;28;19980;-89
2023/03/21 09:09:14;;;;;;;;;;;10.90;99.90;;;;;;4977631;28;19953;-90
2023/03/21 09:11:39;;;;;;;;;;;10.90;99.90;;;;;;5000550;28;19918;-89
2023/03/21 09:14:05;;;;;;;;;;;10.90;99.90;;;;;;4997972;28;19909;-93
2023/03/21 09:16:31;;;;;;;;;;;10.90;99.90;;;;;;4982974;28;20029;-94
2023/03/21 09:18:57;;;;;;;;;;;10.90;99.90;;;;;;5020070;28;19913;-94
2023/03/21 09:21:24;;;;;;;;;;;10.90;99.90;;;;;;5037714;28;20368;-93
2023/03/21 09:23:51;;;;;;;;;;;10.90;99.90;;;;;;5018748;28;20010;-87
2023/03/21 09:26:18;;;;;;;;;;;10.90;99.90;;;;;;5009442;28;19917;-92
2023/03/21 09:28:45;;;;;;;;;;;10.90;99.90;;;;;;5037242;28;19909;-93
2023/03/21 09:31:15;;;;;;;;;;;10.90;99.90;;;;;;5024932;28;19971;-87
2023/03/21 09:33:42;;;;;;;;;;;10.90;99.90;;;;;;5017979;28;20007;-88
2023/03/21 09:36:13;;;;;;;;;;;10.90;99.90;;;;;;5021365;28;20358;-87
2023/03/21 09:38:39;;;;;;;;;;;10.90;99.90;;;;;;5006307;28;19913;-93
2023/03/21 09:41:05;;;;;;;;;;;11.00;99.90;;;;;;5027863;28;19913;-93
2023/03/21 09:43:39;;;;;;;;;;;11.00;99.90;;;;;;5030631;28;19916;-93
2023/03/21 09:46:25;;;;;;;;;;;11.00;99.90;;;;;;5018721;28;20019;-93
2023/03/21 09:48:56;;;;;;;;;;;10.90;99.90;;;;;;5035814;28;20278;-94
2023/03/21 09:51:24;;;;;;;;;;;10.90;99.90;;;;;;5022534;28;19913;-89
2023/03/21 09:53:51;;;;;;;;;;;10.90;99.90;;;;;;5035744;28;19916;-89
2023/03/21 09:56:17;;;;;;;;;;;11.00;99.90;;;;;;5003635;28;19913;-86
2023/03/21 09:58:45;;;;;;;;;;;11.00;99.90;;;;;;5033927;28;19920;-93
2023/03/21 10:01:28;;;;;;;;;;;10.90;99.90;;;;;;5036260;28;19909;-94
2023/03/21 10:04:05;;;;;;;;;;;11.00;99.90;;;;;;5018679;28;20008;-93
2023/03/21 10:06:32;;;;;;;;;;;11.00;99.90;;;;;;5018919;28;19955;-93
2023/03/21 10:09:06;;;;;;;;;;;11.00;99.90;;;;;;5018945;28;19959;-89
2023/03/21 10:11:51;;;;;;;;;;;11.00;99.90;;;;;;5017732;28;20287;-90
2023/03/21 10:14:16;;;;;;;;;;;11.00;99.90;;;;;;5032290;28;19952;-90
2023/03/21 10:16:43;;;;;;;;;;;11.00;99.90;;;;;;5017370;28;19952;-90
2023/03/21 10:19:10;;;;;;;;;;;11.10;99.90;;;;;;5017986;28;20431;-90
2023/03/21 10:21:38;;;;;;;;;;;11.20;99.90;;;;;;5018591;28;20022;-90
2023/03/21 10:24:04;;;;;;;;;;;11.20;99.90;;;;;;5021377;28;20011;-90
2023/03/21 10:26:30;;;;;;;;;;;11.30;99.90;;;;;;5028984;28;19925;-90
2023/03/21 10:28:57;;;;;;;;;;;11.30;99.90;;;;;;5033831;28;20353;-87
2023/03/21 10:31:25;;;;;;;;;;;11.40;99.90;;;;;;5036036;28;19953;-88
2023/03/21 10:33:52;;;;;;;;;;;11.40;99.90;;;;;;5020180;28;19988;-88
2023/03/21 10:36:24;;;;;;;;;;;11.40;99.90;;;;;;5007591;28;20362;-90
2023/03/21 10:38:55;;;;;;;;;;;11.40;99.90;;;;;;5005886;28;20024;-89
2023/03/21 10:41:20;;;;;;;;;;;11.50;99.90;;;;;;5039698;28;19909;-90
2023/03/21 10:44:02;;;;;;;;;;;11.50;99.90;;;;;;5037171;28;19909;-90
2023/03/21 10:46:27;;;;;;;;;;;11.50;99.90;;;;;;5014806;28;19944;-93
2023/03/21 10:48:53;;;;;;;;;;;11.60;99.90;;;;;;5025959;28;19920;-93
2023/03/21 10:51:20;;;;;;;;;;;11.60;99.90;;;;;;5001169;28;19921;-93
2023/03/21 10:53:58;;;;;;;;;;;11.60;99.90;;;;;;5019504;28;20361;-93
2023/03/21 10:56:27;;;;;;;;;;;11.60;99.90;;;;;;5021097;28;19916;-92
2023/03/21 10:58:55;;;;;;;;;;;11.60;99.90;;;;;;5022857;28;20000;-93
2023/03/21 11:01:29;;;;;;;;;;;11.70;99.90;;;;;;5017895;28;19909;-92
2023/03/21 11:03:56;;;;;;;;;;;11.70;99.90;;;;;;5016952;28;19909;-88
2023/03/21 11:06:27;;;;;;;;;;;11.70;99.90;;;;;;5015774;28;19913;-88
2023/03/21 11:08:59;;;;;;;;;;;11.80;99.90;;;;;;5017769;28;19913;-87
2023/03/21 11:11:26;;;;;;;;;;;11.80;99.90;;;;;;5018614;28;20006;-88
2023/03/21 11:13:58;;;;;;;;;;;11.90;99.90;;;;;;5019001;28;19999;-88
2023/03/21 11:16:34;;;;;;;;;;;11.90;99.90;;;;;;5018475;28;19909;-88
2023/03/21 11:19:01;;;;;;;;;;;12.00;99.90;;;;;;5018513;28;19917;-93
2023/03/21 11:21:27;;;;;;;;;;;12.00;99.90;;;;;;5018160;28;20305;-85
2023/03/21 11:23:54;;;;;;;;;;;12.10;99.90;;;;;;5033419;28;19959;-86
2023/03/21 11:26:26;;;;;;;;;;;12.10;99.90;;;;;;5014958;28;19920;-86
2023/03/21 11:28:52;;;;;;;;;;;12.20;99.90;;;;;;5015934;28;20277;-85
2023/03/21 11:31:18;;;;;;;;;;;12.20;99.90;;;;;;5003913;28;20015;-85
2023/03/21 11:33:49;;;;;;;;;;;12.20;99.90;;;;;;5049379;28;19948;-86
2023/03/21 11:36:15;;;;;;;;;;;12.30;99.90;;;;;;5037364;28;19996;-91
2023/03/21 11:38:40;;;;;;;;;;;12.30;99.90;;;;;;5024344;28;20361;-94
2023/03/21 11:41:06;;;;;;;;;;;12.30;99.90;;;;;;5002579;28;19927;-91
2023/03/21 11:43:49;;;;;;;;;;;12.40;99.90;;;;;;5017622;28;20265;-92
2023/03/21 11:46:15;;;;;;;;;;;12.40;99.90;;;;;;5017915;28;19974;-93
2023/03/21 11:48:47;;;;;;;;;;;12.50;99.90;;;;;;5004938;28;20357;-92
2023/03/21 11:51:36;;;;;;;;;;;12.50;99.90;;;;;;5027915;28;20370;-93
2023/03/21 11:54:21;;;;;;;;;;;12.60;99.90;;;;;;5016431;28;20373;-87
2023/03/21 11:56:51;;;;;;;;;;;12.60;99.90;;;;;;5007017;28;20002;-88
2023/03/21 11:59:26;;;;;;;;;;;12.60;99.90;;;;;;5019868;28;20342;-88
2023/03/21 12:02:10;;;;;;;;;;;12.60;99.90;;;;;;5033405;28;20376;-92
2023/03/21 12:04:40;;;;;;;;;;;12.60;99.90;;;;;;5020332;28;19913;-93
2023/03/21 12:07:23;;;;;;;;;;;12.70;99.90;;;;;;5012981;28;19999;-93
2023/03/21 12:10:01;;;;;;;;;;;12.70;99.90;;;;;;5038242;28;19979;-91
2023/03/21 12:12:38;;;;;;;;;;;12.80;99.90;;;;;;5026951;28;19913;-93
2023/03/21 12:15:04;;;;;;;;;;;12.80;99.90;;;;;;5025274;28;19909;-93
2023/03/21 12:17:40;;;;;;;;;;;12.80;99.90;;;;;;5020835;28;19956;-94
2023/03/21 12:20:15;;;;;;;;;;;13.00;99.90;;;;;;5020543;28;19910;-93
2023/03/21 12:22:43;;;;;;;;;;;13.00;99.90;;;;;;5017368;28;19909;-93
2023/03/21 12:25:12;;;;;;;;;;;13.00;99.90;;;;;;5000571;28;19910;-94
2023/03/21 12:27:41;;;;;;;;;;;13.00;99.90;;;;;;5007623;28;19915;-93
2023/03/21 12:30:12;;;;;;;;;;;13.00;99.90;;;;;;5020147;28;19909;-95
2023/03/21 12:32:50;;;;;;;;;;;13.00;99.90;;;;;;5030998;28;19908;-94
2023/03/21 12:35:31;;;;;;;;;;;13.10;99.90;;;;;;5039038;28;19963;-94
2023/03/21 12:38:02;;;;;;;;;;;13.10;99.90;;;;;;5039305;28;19908;-94
2023/03/21 12:40:36;;;;;;;;;;;13.10;99.90;;;;;;5041038;28;19909;-93
2023/03/21 12:43:11;;;;;;;;;;;13.10;99.90;;;;;;5043337;28;19909;-93
2023/03/21 12:45:44;;;;;;;;;;;13.10;99.90;;;;;;5033619;28;19913;-94
2023/03/21 12:48:35;;;;;;;;;;;13.10;99.90;;;;;;5042481;28;19957;-92
2023/03/21 12:51:07;;;;;;;;;;;13.10;99.90;;;;;;5055900;28;19911;-94
2023/03/21 12:53:39;;;;;;;;;;;13.20;99.90;;;;;;5052472;28;19920;-94
2023/03/21 12:56:08;;;;;;;;;;;13.10;99.90;;;;;;5043244;28;20277;-93
2023/03/21 12:58:38;;;;;;;;;;;13.20;99.90;;;;;;5034294;28;19996;-90
2023/03/21 13:01:16;;;;;;;;;;;13.20;99.90;;;;;;5029126;28;20381;-91
2023/03/21 13:03:45;;;;;;;;;;;13.20;99.90;;;;;;5034976;28;19913;-91
2023/03/21 13:06:12;;;;;;;;;;;13.30;99.90;;;;;;5054549;28;19898;-92
2023/03/21 13:08:40;;;;;;;;;;;13.30;99.90;;;;;;5042950;28;19964;-92
2023/03/21 13:11:14;;;;;;;;;;;13.40;99.90;;;;;;5042939;28;19928;-91
2023/03/21 13:13:51;;;;;;;;;;;13.50;99.90;;;;;;5019978;28;19909;-92
2023/03/21 13:16:17;;;;;;;;;;;13.50;99.90;;;;;;5024468;28;19909;-93
2023/03/21 13:19:01;;;;;;;;;;;13.50;99.90;;;;;;5034801;28;19927;-93
2023/03/21 13:21:33;;;;;;;;;;;13.50;99.90;;;;;;5038000;28;20358;-92
2023/03/21 13:24:01;;;;;;;;;;;13.60;99.90;;;;;;5032003;28;20320;-92
2023/03/21 13:26:38;;;;;;;;;;;13.60;99.90;;;;;;5037094;28;19909;-92
2023/03/21 13:29:22;;;;;;;;;;;13.60;99.90;;;;;;5052900;28;19901;-92
2023/03/21 13:31:49;;;;;;;;;;;13.60;99.90;;;;;;5074705;22;19921;-92
2023/03/21 13:34:15;;;;;;;;;;;13.70;99.90;;;;;;5062032;28;19909;-92
2023/03/21 13:36:47;;;;;;;;;;;13.70;99.90;;;;;;5080436;28;19944;-92
2023/03/21 13:39:32;;;;;;;;;;;;;;;;;;;;;
2023/03/21 13:42:05;;;;;;;;;;;13.10;99.90;;;;;;5075325;28;19972;-94
2023/03/21 13:44:34;;;;;;;;;;;13.70;99.90;;;;;;5056223;28;19968;-93
2023/03/21 13:47:24;;;;;;;;;;;13.90;99.90;;;;;;5045086;28;19905;-93
2023/03/21 13:50:08;;;;;;;;;;;13.90;99.90;;;;;;5053613;28;20209;-93
2023/03/21 13:52:36;;;;;;;;;;;14.10;99.90;;;;;;5060094;28;19917;-92
2023/03/21 13:55:02;;;;;;;;;;;14.20;99.90;;;;;;5065730;28;19923;-89
2023/03/21 13:57:33;;;;;;;;;;;14.30;99.90;;;;;;5061942;28;19912;-94
2023/03/21 14:03:23;;;;;;;;;;;14.50;99.90;;;;;;5070145;28;19940;-93
2023/03/21 14:05:52;;;;;;;;;;;14.60;99.90;;;;;;5063502;28;19919;-94
2023/03/21 14:08:20;;;;;;;;;;;14.60;99.90;;;;;;5061916;28;19908;-92
2023/03/21 14:10:48;;;;;;;;;;;14.60;99.90;;;;;;5061420;28;19924;-93
2023/03/21 14:13:18;;;;;;;;;;;14.70;99.90;;;;;;5061538;28;20016;-94
2023/03/21 14:16:03;;;;;;;;;;;14.70;99.90;;;;;;5065834;28;19919;-96
2023/03/21 14:18:29;;;;;;;;;;;14.70;99.90;;;;;;5067947;28;19909;-95
2023/03/21 14:20:56;;;;;;;;;;;14.80;99.90;;;;;;5060258;28;19923;-95
2023/03/21 14:23:22;;;;;;;;;;;14.80;99.90;;;;;;5061374;28;19897;-92
2023/03/21 14:25:48;;;;;;;;;;;14.70;99.90;;;;;;5060951;28;19915;-94
2023/03/21 14:28:16;;;;;;;;;;;14.70;99.90;;;;;;5063855;28;19908;-95
2023/03/21 14:30:46;;;;;;;;;;;14.60;99.90;;;;;;5060747;28;19904;-91
2023/03/21 14:33:18;;;;;;;;;;;14.80;99.90;;;;;;5070502;28;19936;-91
2023/03/21 14:35:45;;;;;;;;;;;14.80;99.90;;;;;;5079443;28;19915;-92
2023/03/21 14:38:19;;;;;;;;;;;14.80;99.90;;;;;;5086692;28;19908;-91
2023/03/21 14:40:46;;;;;;;;;;;14.80;99.90;;;;;;5097592;28;19934;-92
2023/03/21 14:43:11;;;;;;;;;;;14.80;99.90;;;;;;5079674;28;20046;-92